Reinbeck, Iowa
Current Conditions -  °F | °C
As of 10:24 AM on Saturday 22 Nov 2014 (Local Time) from KALO Reporting Station
Haze Haze  
Wind Chill: 33°   Ceiling: 200
Heat Index: 37°   Visibility: 1mi
Dew Point: 37°   Wind: 5mph
Humidity: 100%   Direction: 210°SSW
Pressure: 29.85"   Gusts: NA
Location:  42.32°N, 92.6°W
Report Text: KALO 221624Z 21004KT 1SM R12/4000V4500FT BR OVC002 03/03 A2985 RMK AO2 T00280028 $
Loading
Personal Weather Stations






























Interactive Weather Map New forecast layout! Learn more

10-Day Weather Forecast

Advertisements
Track Severe Weather on mobile